Time;durP1;ratioP1;P1;durP2;ratioP2;P2;SDS_P1;SDS_P2;PMS_P1;PMS_P2;Temp;Humidity;BMP_temperature;BMP_pressure;BME280_temperature;BME280_humidity;BME280_pressure;Samples;Min_cycle;Max_cycle;Signal;HPM_P1;HPM_P2
2022/03/14 00:01:55;;;;;;;337.75;187.82;;;;;;;;;;5078396;28;20059;-72
2022/03/14 00:04:20;;;;;;;250.90;135.52;;;;;;;;;;5080615;28;20064;-72
2022/03/14 00:06:48;;;;;;;246.75;142.43;;;;;;;;;;5076410;28;20020;-72
2022/03/14 00:09:14;;;;;;;248.27;138.68;;;;;;;;;;5077536;28;20059;-72
2022/03/14 00:11:39;;;;;;;190.32;97.50;;;;;;;;;;5077840;28;20070;-73
2022/03/14 00:14:07;;;;;;;163.02;82.05;;;;;;;;;;5075436;28;20494;-71
2022/03/14 00:16:33;;;;;;;155.25;83.53;;;;;;;;;;5082508;28;20052;-72
2022/03/14 00:18:58;;;;;;;125.13;67.95;;;;;;;;;;5068203;28;20071;-72
2022/03/14 00:21:25;;;;;;;79.85;46.88;;;;;;;;;;5085090;28;20059;-71
2022/03/14 00:23:54;;;;;;;69.90;42.85;;;;;;;;;;5086083;28;20430;-72
2022/03/14 00:26:22;;;;;;;75.47;47.33;;;;;;;;;;5075645;28;20016;-72
2022/03/14 00:28:47;;;;;;;117.35;69.25;;;;;;;;;;5085358;28;20035;-72
2022/03/14 00:31:13;;;;;;;145.35;80.32;;;;;;;;;;5066861;28;20039;-72
2022/03/14 00:33:39;;;;;;;144.68;77.50;;;;;;;;;;5085258;28;20063;-72
2022/03/14 00:36:05;;;;;;;170.63;87.13;;;;;;;;;;5084171;28;20359;-71
2022/03/14 00:38:33;;;;;;;212.20;111.88;;;;;;;;;;5084366;28;20023;-72
2022/03/14 00:40:59;;;;;;;238.00;126.90;;;;;;;;;;5073855;28;20600;-72
2022/03/14 00:43:25;;;;;;;296.05;170.15;;;;;;;;;;5077126;28;20034;-73
2022/03/14 00:45:50;;;;;;;202.57;111.55;;;;;;;;;;5085289;28;20106;-72
2022/03/14 00:48:15;;;;;;;139.13;74.00;;;;;;;;;;5082346;28;20381;-72
2022/03/14 00:50:42;;;;;;;162.30;89.93;;;;;;;;;;5077663;28;20051;-72
2022/03/14 00:53:08;;;;;;;237.85;134.98;;;;;;;;;;5084128;28;20020;-71
2022/03/14 00:55:34;;;;;;;246.82;136.30;;;;;;;;;;5085937;28;20020;-72
2022/03/14 00:57:59;;;;;;;243.80;131.48;;;;;;;;;;5083459;28;20034;-72
2022/03/14 01:00:24;;;;;;;217.68;121.07;;;;;;;;;;5076375;28;20215;-71
2022/03/14 01:02:50;;;;;;;207.95;114.68;;;;;;;;;;5083783;28;20031;-72
2022/03/14 01:05:16;;;;;;;184.50;100.82;;;;;;;;;;5083093;28;20024;-72
2022/03/14 01:07:41;;;;;;;180.68;99.95;;;;;;;;;;5085169;28;20023;-72
2022/03/14 01:10:07;;;;;;;127.20;68.68;;;;;;;;;;5083646;28;20107;-72
2022/03/14 01:12:33;;;;;;;93.10;51.53;;;;;;;;;;5078901;28;20052;-73
2022/03/14 01:14:59;;;;;;;69.07;38.38;;;;;;;;;;5074858;28;20024;-73
2022/03/14 01:17:24;;;;;;;136.95;74.45;;;;;;;;;;5085246;28;20047;-72
2022/03/14 01:19:49;;;;;;;213.82;110.32;;;;;;;;;;5084526;28;20396;-74
2022/03/14 01:22:15;;;;;;;246.02;122.32;;;;;;;;;;5077712;28;20089;-72
2022/03/14 01:24:42;;;;;;;283.73;133.55;;;;;;;;;;5078952;28;20451;-72
2022/03/14 01:27:07;;;;;;;255.80;118.25;;;;;;;;;;5082214;28;20077;-72
2022/03/14 01:29:34;;;;;;;250.32;122.00;;;;;;;;;;5075412;28;20024;-72
2022/03/14 01:32:02;;;;;;;249.75;123.30;;;;;;;;;;5076008;28;20081;-72
2022/03/14 01:34:27;;;;;;;235.68;117.80;;;;;;;;;;5075988;28;20039;-73
2022/03/14 01:36:53;;;;;;;218.73;105.32;;;;;;;;;;5082680;28;20028;-72
2022/03/14 01:39:18;;;;;;;244.80;131.65;;;;;;;;;;5065215;28;20046;-72
2022/03/14 01:41:44;;;;;;;184.60;96.53;;;;;;;;;;5082139;28;20426;-73
2022/03/14 01:44:09;;;;;;;159.23;81.43;;;;;;;;;;5082913;28;20057;-72
2022/03/14 01:46:35;;;;;;;145.90;77.10;;;;;;;;;;5082242;28;20089;-73
2022/03/14 01:49:00;;;;;;;141.10;74.50;;;;;;;;;;5077143;28;20423;-72
2022/03/14 01:51:26;;;;;;;162.75;81.97;;;;;;;;;;5076827;28;20031;-73
2022/03/14 01:53:52;;;;;;;122.43;59.58;;;;;;;;;;5082620;28;20024;-74
2022/03/14 01:56:18;;;;;;;123.00;67.25;;;;;;;;;;5081866;28;20446;-73
2022/03/14 01:58:45;;;;;;;142.88;74.05;;;;;;;;;;5084044;28;20019;-74
2022/03/14 02:01:11;;;;;;;155.18;77.75;;;;;;;;;;5084585;28;20666;-72
2022/03/14 02:03:36;;;;;;;154.70;80.53;;;;;;;;;;5083834;28;20020;-72
2022/03/14 02:06:02;;;;;;;146.18;77.20;;;;;;;;;;5082301;28;20031;-74
2022/03/14 02:08:27;;;;;;;125.05;67.95;;;;;;;;;;5082090;28;20460;-72
2022/03/14 02:10:53;;;;;;;163.85;84.65;;;;;;;;;;5077047;28;20046;-72
2022/03/14 02:13:18;;;;;;;150.48;81.25;;;;;;;;;;5075411;28;20451;-72
2022/03/14 02:15:45;;;;;;;152.80;84.93;;;;;;;;;;5070491;28;20451;-72
2022/03/14 02:18:10;;;;;;;102.93;59.20;;;;;;;;;;5081350;28;20032;-73
2022/03/14 02:20:36;;;;;;;121.45;66.75;;;;;;;;;;5074966;28;20069;-73
2022/03/14 02:23:02;;;;;;;111.82;61.15;;;;;;;;;;5083812;28;20070;-73
2022/03/14 02:25:27;;;;;;;89.03;47.35;;;;;;;;;;5074426;28;20020;-73
2022/03/14 02:27:52;;;;;;;63.05;35.53;;;;;;;;;;5081337;28;20362;-74
2022/03/14 02:30:18;;;;;;;80.15;42.55;;;;;;;;;;5082869;28;20027;-72
2022/03/14 02:32:45;;;;;;;92.63;46.40;;;;;;;;;;5082445;28;20050;-72
2022/03/14 02:35:10;;;;;;;135.43;65.57;;;;;;;;;;5071705;28;20028;-73
2022/03/14 02:37:36;;;;;;;145.70;73.15;;;;;;;;;;5080830;28;20427;-72
2022/03/14 02:40:02;;;;;;;120.78;62.90;;;;;;;;;;5076543;28;20470;-71
2022/03/14 02:42:27;;;;;;;99.97;51.08;;;;;;;;;;5075796;28;20110;-72
2022/03/14 02:44:52;;;;;;;89.70;46.80;;;;;;;;;;5083514;28;20427;-73
2022/03/14 02:47:20;;;;;;;94.97;47.20;;;;;;;;;;5080693;28;20081;-73
2022/03/14 02:49:45;;;;;;;64.05;35.50;;;;;;;;;;5067059;28;20071;-73
2022/03/14 02:52:11;;;;;;;43.55;26.00;;;;;;;;;;5081268;28;20427;-74
2022/03/14 02:54:36;;;;;;;36.92;22.67;;;;;;;;;;5080520;28;20026;-75
2022/03/14 02:57:02;;;;;;;39.95;23.85;;;;;;;;;;5070576;28;20075;-72
2022/03/14 02:59:27;;;;;;;58.63;32.90;;;;;;;;;;5081193;28;20067;-72
2022/03/14 03:01:53;;;;;;;63.80;35.35;;;;;;;;;;5081221;28;20016;-73
2022/03/14 03:04:18;;;;;;;77.20;40.75;;;;;;;;;;5083288;28;20028;-72
2022/03/14 03:06:45;;;;;;;91.40;48.78;;;;;;;;;;5082907;28;20078;-72
2022/03/14 03:09:10;;;;;;;107.38;55.55;;;;;;;;;;5082296;28;20028;-72
2022/03/14 03:11:36;;;;;;;108.63;54.13;;;;;;;;;;5081621;28;20024;-73
2022/03/14 03:14:01;;;;;;;105.68;54.25;;;;;;;;;;5080828;28;20056;-72
2022/03/14 03:16:27;;;;;;;103.88;55.25;;;;;;;;;;5082263;28;20032;-72
2022/03/14 03:18:53;;;;;;;96.25;56.75;;;;;;;;;;5074672;28;20032;-72
2022/03/14 03:21:18;;;;;;;98.63;50.47;;;;;;;;;;5073014;28;20063;-73
2022/03/14 03:23:44;;;;;;;115.80;55.65;;;;;;;;;;5081302;28;20324;-73
2022/03/14 03:26:09;;;;;;;93.30;45.55;;;;;;;;;;5081881;28;20071;-73
2022/03/14 03:28:35;;;;;;;79.78;42.05;;;;;;;;;;5081173;28;20327;-73
2022/03/14 03:31:04;;;;;;;81.43;42.58;;;;;;;;;;5081208;28;20036;-73
2022/03/14 03:33:30;;;;;;;63.55;37.60;;;;;;;;;;5072972;28;20028;-72
2022/03/14 03:35:55;;;;;;;77.40;42.85;;;;;;;;;;5080729;28;20028;-72
2022/03/14 03:38:20;;;;;;;91.57;49.17;;;;;;;;;;5081297;28;20077;-72
2022/03/14 03:40:46;;;;;;;104.88;58.95;;;;;;;;;;5064239;28;20036;-73
2022/03/14 03:43:11;;;;;;;105.53;58.67;;;;;;;;;;5073980;28;20032;-72
2022/03/14 03:45:37;;;;;;;114.03;60.60;;;;;;;;;;5076399;28;20028;-72
2022/03/14 03:48:02;;;;;;;132.25;67.63;;;;;;;;;;5077454;28;20035;-74
2022/03/14 03:50:27;;;;;;;131.93;68.70;;;;;;;;;;5081491;28;20107;-72
2022/03/14 03:52:53;;;;;;;114.80;62.15;;;;;;;;;;5081047;28;20020;-73
2022/03/14 03:55:18;;;;;;;135.02;72.10;;;;;;;;;;5083471;28;20036;-73
2022/03/14 03:57:43;;;;;;;128.93;73.20;;;;;;;;;;5083071;28;20430;-73
2022/03/14 04:00:12;;;;;;;178.15;101.05;;;;;;;;;;5080212;28;20036;-72
2022/03/14 04:02:39;;;;;;;166.25;93.85;;;;;;;;;;5078936;28;20028;-72
2022/03/14 04:05:05;;;;;;;117.88;64.82;;;;;;;;;;5062723;28;20403;-72
2022/03/14 04:07:34;;;;;;;116.10;65.53;;;;;;;;;;5082084;28;20442;-72
2022/03/14 04:09:59;;;;;;;94.60;52.00;;;;;;;;;;5081992;28;20431;-72
2022/03/14 04:12:26;;;;;;;93.57;52.72;;;;;;;;;;5081199;28;20048;-73
2022/03/14 04:14:51;;;;;;;87.60;49.83;;;;;;;;;;5082645;28;20020;-71
2022/03/14 04:17:18;;;;;;;103.28;58.20;;;;;;;;;;5084170;28;20351;-72
2022/03/14 04:19:44;;;;;;;125.38;64.70;;;;;;;;;;5086020;28;20439;-73
2022/03/14 04:22:09;;;;;;;125.72;63.17;;;;;;;;;;5084027;28;20413;-74
2022/03/14 04:24:35;;;;;;;138.20;70.25;;;;;;;;;;5084453;28;20052;-76
2022/03/14 04:27:01;;;;;;;117.43;60.15;;;;;;;;;;5083163;28;20076;-75
2022/03/14 04:29:27;;;;;;;95.97;56.72;;;;;;;;;;5086735;28;20095;-75
2022/03/14 04:31:53;;;;;;;90.22;51.53;;;;;;;;;;5061346;28;20031;-73
2022/03/14 04:34:18;;;;;;;116.35;56.28;;;;;;;;;;5061640;28;20024;-73
2022/03/14 04:36:44;;;;;;;96.93;53.38;;;;;;;;;;5083802;28;20119;-73
2022/03/14 04:39:09;;;;;;;83.78;46.08;;;;;;;;;;5083813;28;20036;-72
2022/03/14 04:41:37;;;;;;;70.05;38.20;;;;;;;;;;5084629;28;20675;-72
2022/03/14 04:44:03;;;;;;;154.13;85.47;;;;;;;;;;5084151;28;20028;-72
2022/03/14 04:46:29;;;;;;;108.45;55.80;;;;;;;;;;5064670;28;20073;-74
2022/03/14 04:48:54;;;;;;;112.82;58.95;;;;;;;;;;5062931;28;20047;-72
2022/03/14 04:51:20;;;;;;;149.32;79.10;;;;;;;;;;5073333;28;20047;-72
2022/03/14 04:53:45;;;;;;;124.55;65.03;;;;;;;;;;5071916;28;20024;-73
2022/03/14 04:56:12;;;;;;;129.40;67.72;;;;;;;;;;5062613;28;20035;-74
2022/03/14 04:58:37;;;;;;;130.75;67.97;;;;;;;;;;5072395;28;20075;-73
2022/03/14 05:01:02;;;;;;;87.35;49.00;;;;;;;;;;5074420;28;20067;-72
2022/03/14 05:03:28;;;;;;;65.28;35.67;;;;;;;;;;5074861;28;20023;-72
2022/03/14 05:05:53;;;;;;;56.58;34.08;;;;;;;;;;5080052;28;20090;-72
2022/03/14 05:08:19;;;;;;;62.55;39.55;;;;;;;;;;5085598;28;20079;-72
2022/03/14 05:10:45;;;;;;;104.72;66.60;;;;;;;;;;5084208;28;20089;-72
2022/03/14 05:13:10;;;;;;;106.55;65.05;;;;;;;;;;5084665;28;20381;-72
2022/03/14 05:15:36;;;;;;;73.93;44.70;;;;;;;;;;5084187;28;20385;-72
2022/03/14 05:18:01;;;;;;;77.00;44.63;;;;;;;;;;5071051;28;20114;-72
2022/03/14 05:20:27;;;;;;;81.22;48.10;;;;;;;;;;5070681;28;20377;-72
2022/03/14 05:22:53;;;;;;;127.40;67.82;;;;;;;;;;5070745;28;20081;-72
2022/03/14 05:25:22;;;;;;;199.77;111.70;;;;;;;;;;5073421;28;20070;-71
2022/03/14 05:27:48;;;;;;;169.73;100.72;;;;;;;;;;5071659;28;20046;-72
2022/03/14 05:30:14;;;;;;;429.50;232.23;;;;;;;;;;5072513;28;20031;-72
2022/03/14 05:32:40;;;;;;;216.15;113.05;;;;;;;;;;5079491;28;20032;-70
2022/03/14 05:35:06;;;;;;;130.43;68.68;;;;;;;;;;5070577;28;20047;-72
2022/03/14 05:37:31;;;;;;;119.05;62.85;;;;;;;;;;5083181;28;20122;-71
2022/03/14 05:39:56;;;;;;;157.07;83.05;;;;;;;;;;5084098;28;20061;-69
2022/03/14 05:42:22;;;;;;;223.38;129.23;;;;;;;;;;5085309;28;20035;-70
2022/03/14 05:44:47;;;;;;;243.30;137.75;;;;;;;;;;5083804;28;20027;-67
2022/03/14 05:47:13;;;;;;;254.68;148.82;;;;;;;;;;5074711;28;20032;-70
2022/03/14 05:49:38;;;;;;;278.58;151.75;;;;;;;;;;5072864;28;20034;-71
2022/03/14 05:52:04;;;;;;;283.52;161.20;;;;;;;;;;5073227;28;20102;-72
2022/03/14 05:54:29;;;;;;;285.60;144.27;;;;;;;;;;5080904;28;20462;-72
2022/03/14 05:56:54;;;;;;;243.02;135.82;;;;;;;;;;5083039;28;20346;-71
2022/03/14 05:59:20;;;;;;;499.20;284.52;;;;;;;;;;5082609;28;20508;-72
2022/03/14 06:01:46;;;;;;;898.40;464.65;;;;;;;;;;5083181;28;20031;-73
2022/03/14 06:04:11;;;;;;;645.05;355.40;;;;;;;;;;5085275;28;20077;-71
2022/03/14 06:06:38;;;;;;;569.47;319.65;;;;;;;;;;5085262;28;20023;-71
2022/03/14 06:09:03;;;;;;;387.55;218.77;;;;;;;;;;5080966;28;20112;-72
2022/03/14 06:11:28;;;;;;;349.42;194.98;;;;;;;;;;5073362;28;20649;-71
2022/03/14 06:13:54;;;;;;;356.33;189.10;;;;;;;;;;5071757;28;20054;-69
2022/03/14 06:16:21;;;;;;;315.38;181.20;;;;;;;;;;5069227;28;20925;-71
2022/03/14 06:18:46;;;;;;;252.45;143.43;;;;;;;;;;5071827;28;20031;-73
2022/03/14 06:21:12;;;;;;;219.00;126.47;;;;;;;;;;5073110;28;20032;-71
2022/03/14 06:23:37;;;;;;;155.18;89.57;;;;;;;;;;5072569;28;20125;-70
2022/03/14 06:26:03;;;;;;;120.75;72.88;;;;;;;;;;5070814;28;20469;-69
2022/03/14 06:28:28;;;;;;;116.75;75.40;;;;;;;;;;5073678;28;20055;-71
2022/03/14 06:30:53;;;;;;;121.70;74.35;;;;;;;;;;5071311;28;20024;-70
2022/03/14 06:33:19;;;;;;;111.22;69.25;;;;;;;;;;5071781;28;20043;-70
2022/03/14 06:35:44;;;;;;;109.72;64.50;;;;;;;;;;5072160;28;20038;-69
2022/03/14 06:38:11;;;;;;;110.55;65.88;;;;;;;;;;5069785;28;20111;-70
2022/03/14 06:40:36;;;;;;;210.82;130.38;;;;;;;;;;5081441;28;20039;-69
2022/03/14 06:43:02;;;;;;;180.73;119.22;;;;;;;;;;5083244;28;20028;-67
2022/03/14 06:45:29;;;;;;;160.18;102.82;;;;;;;;;;5063045;28;20046;-69
2022/03/14 06:47:55;;;;;;;176.32;110.43;;;;;;;;;;5081706;28;20069;-69
2022/03/14 06:50:21;;;;;;;163.80;108.65;;;;;;;;;;5082190;28;20028;-69
2022/03/14 06:52:47;;;;;;;133.23;92.88;;;;;;;;;;5071707;28;20085;-70
2022/03/14 06:55:13;;;;;;;129.02;82.97;;;;;;;;;;5083413;28;20456;-70
2022/03/14 06:57:39;;;;;;;122.63;78.38;;;;;;;;;;5081356;28;20516;-70
2022/03/14 07:00:05;;;;;;;137.02;84.47;;;;;;;;;;5081669;28;20061;-70
2022/03/14 07:02:30;;;;;;;105.10;67.97;;;;;;;;;;5082232;28;20032;-69
2022/03/14 07:04:56;;;;;;;87.82;56.10;;;;;;;;;;5079801;28;20081;-69
2022/03/14 07:07:21;;;;;;;80.20;49.92;;;;;;;;;;5069420;28;20378;-69
2022/03/14 07:09:46;;;;;;;97.63;59.03;;;;;;;;;;5069919;28;20113;-69
2022/03/14 07:12:12;;;;;;;128.45;83.25;;;;;;;;;;5069911;28;20415;-70
2022/03/14 07:14:37;;;;;;;129.48;83.00;;;;;;;;;;5072260;28;20035;-70
2022/03/14 07:17:03;;;;;;;119.18;70.95;;;;;;;;;;5076475;28;20049;-71
2022/03/14 07:19:28;;;;;;;125.80;82.97;;;;;;;;;;5072916;28;20106;-71
2022/03/14 07:21:54;;;;;;;85.53;56.65;;;;;;;;;;5072320;28;20338;-71
2022/03/14 07:24:19;;;;;;;87.25;54.42;;;;;;;;;;5072542;28;20039;-71
2022/03/14 07:26:44;;;;;;;82.88;51.08;;;;;;;;;;5070867;28;23801;-71
2022/03/14 07:29:10;;;;;;;66.65;43.88;;;;;;;;;;5073400;28;20055;-71
2022/03/14 07:31:37;;;;;;;70.57;45.33;;;;;;;;;;5070784;28;20375;-71
2022/03/14 07:34:02;;;;;;;45.40;31.45;;;;;;;;;;5069944;28;20035;-71
2022/03/14 07:36:28;;;;;;;69.93;45.08;;;;;;;;;;5058887;28;20028;-70
2022/03/14 07:38:56;;;;;;;70.95;47.03;;;;;;;;;;5070709;28;22886;-72
2022/03/14 07:41:21;;;;;;;116.47;77.30;;;;;;;;;;5071149;28;20060;-71
2022/03/14 07:43:47;;;;;;;99.30;61.92;;;;;;;;;;5074026;28;20480;-73
2022/03/14 07:46:12;;;;;;;93.22;58.47;;;;;;;;;;5071288;28;20115;-71
2022/03/14 07:48:37;;;;;;;102.70;67.38;;;;;;;;;;5076625;28;20049;-69
2022/03/14 07:51:03;;;;;;;102.75;65.05;;;;;;;;;;5062321;28;20244;-70
2022/03/14 07:53:29;;;;;;;95.05;57.05;;;;;;;;;;5075341;28;20024;-69
2022/03/14 07:55:54;;;;;;;87.00;57.20;;;;;;;;;;5080404;28;20024;-72
2022/03/14 07:58:20;;;;;;;77.45;51.30;;;;;;;;;;5085900;28;20028;-71
2022/03/14 08:00:45;;;;;;;83.13;49.78;;;;;;;;;;5085268;28;20116;-71
2022/03/14 08:03:10;;;;;;;177.15;89.80;;;;;;;;;;5078433;28;20023;-71
2022/03/14 08:05:37;;;;;;;68.45;45.28;;;;;;;;;;5057291;28;20038;-71
2022/03/14 08:08:04;;;;;;;105.75;59.80;;;;;;;;;;5076032;28;20043;-72
2022/03/14 08:10:30;;;;;;;74.07;43.90;;;;;;;;;;5074006;28;20028;-71
2022/03/14 08:12:56;;;;;;;52.65;36.38;;;;;;;;;;5085674;28;20046;-72
2022/03/14 08:15:22;;;;;;;69.40;43.70;;;;;;;;;;5081909;28;20059;-72
2022/03/14 08:17:50;;;;;;;50.50;33.97;;;;;;;;;;5083831;28;20118;-72
2022/03/14 08:20:15;;;;;;;61.83;40.10;;;;;;;;;;5065332;28;20396;-73
2022/03/14 08:22:42;;;;;;;37.80;28.13;;;;;;;;;;5084634;28;20024;-76
2022/03/14 08:25:07;;;;;;;47.38;39.13;;;;;;;;;;5066154;28;20032;-73
2022/03/14 08:27:33;;;;;;;42.05;33.33;;;;;;;;;;5082612;28;20156;-73
2022/03/14 08:29:58;;;;;;;36.17;27.40;;;;;;;;;;5082533;28;20028;-74
2022/03/14 08:32:24;;;;;;;34.30;25.13;;;;;;;;;;5084312;28;20112;-75
2022/03/14 08:34:52;;;;;;;38.38;28.88;;;;;;;;;;5082797;28;20331;-75
2022/03/14 08:37:17;;;;;;;40.38;26.77;;;;;;;;;;5083560;28;20342;-72
2022/03/14 08:39:43;;;;;;;33.88;25.23;;;;;;;;;;5083398;28;20028;-73
2022/03/14 08:42:09;;;;;;;27.83;20.77;;;;;;;;;;5067097;28;20676;-73
2022/03/14 08:44:34;;;;;;;26.88;20.95;;;;;;;;;;5083071;28;20039;-74
2022/03/14 08:46:59;;;;;;;91.95;65.13;;;;;;;;;;5085137;28;20027;-72
2022/03/14 08:49:25;;;;;;;46.25;34.00;;;;;;;;;;5065918;28;20032;-71
2022/03/14 08:51:50;;;;;;;24.75;17.73;;;;;;;;;;5075271;28;20514;-75
2022/03/14 08:54:16;;;;;;;26.17;19.15;;;;;;;;;;5078350;28;20654;-69
2022/03/14 08:56:41;;;;;;;25.92;21.25;;;;;;;;;;5084117;28;20028;-70
2022/03/14 08:59:10;;;;;;;24.92;19.75;;;;;;;;;;5084007;28;20061;-70
2022/03/14 09:01:35;;;;;;;23.05;18.35;;;;;;;;;;5085667;28;20024;-69
2022/03/14 09:04:01;;;;;;;24.73;19.23;;;;;;;;;;5084524;28;20358;-69
2022/03/14 09:06:28;;;;;;;23.38;18.45;;;;;;;;;;5079036;28;20042;-70
2022/03/14 09:08:53;;;;;;;31.10;24.95;;;;;;;;;;5085256;28;20035;-69
2022/03/14 09:11:19;;;;;;;22.35;16.95;;;;;;;;;;5085623;28;20035;-71
2022/03/14 09:13:44;;;;;;;21.63;15.25;;;;;;;;;;5076728;28;20040;-72
2022/03/14 09:16:09;;;;;;;22.55;16.10;;;;;;;;;;5076977;28;20028;-73
2022/03/14 09:18:36;;;;;;;23.60;15.13;;;;;;;;;;5079160;28;20028;-73
2022/03/14 09:21:01;;;;;;;28.63;20.05;;;;;;;;;;5074899;28;20492;-71
2022/03/14 09:23:27;;;;;;;25.83;17.50;;;;;;;;;;5075236;28;20055;-71
2022/03/14 09:25:55;;;;;;;25.20;18.35;;;;;;;;;;5073184;28;20020;-71
2022/03/14 09:28:20;;;;;;;20.60;14.00;;;;;;;;;;5079243;28;20027;-71
2022/03/14 09:30:46;;;;;;;19.63;14.30;;;;;;;;;;5075584;28;20036;-71
2022/03/14 09:33:11;;;;;;;19.70;13.43;;;;;;;;;;5075932;28;20020;-72
2022/03/14 09:35:36;;;;;;;22.30;13.38;;;;;;;;;;5075946;28;20072;-74
2022/03/14 09:38:02;;;;;;;15.60;10.13;;;;;;;;;;5072696;28;20431;-74
2022/03/14 09:40:29;;;;;;;17.45;13.07;;;;;;;;;;5072066;28;20024;-73
2022/03/14 09:42:55;;;;;;;14.68;10.93;;;;;;;;;;5074442;28;20373;-73
2022/03/14 09:45:21;;;;;;;20.50;13.93;;;;;;;;;;5074655;28;20020;-71
2022/03/14 09:47:47;;;;;;;25.23;16.02;;;;;;;;;;5073600;28;20031;-71
2022/03/14 09:50:20;;;;;;;25.42;18.40;;;;;;;;;;5074717;28;20102;-71
2022/03/14 09:52:46;;;;;;;21.58;16.77;;;;;;;;;;5072263;28;20024;-73
2022/03/14 09:55:12;;;;;;;26.08;20.05;;;;;;;;;;5073456;28;20046;-72
2022/03/14 09:57:38;;;;;;;24.95;18.40;;;;;;;;;;5072516;28;20024;-71
2022/03/14 10:00:04;;;;;;;19.13;13.55;;;;;;;;;;5074827;28;20073;-73
2022/03/14 10:02:30;;;;;;;38.15;23.00;;;;;;;;;;5077041;28;20027;-75
2022/03/14 10:04:55;;;;;;;27.30;18.33;;;;;;;;;;5076701;28;20028;-75
2022/03/14 10:07:21;;;;;;;18.35;12.95;;;;;;;;;;5076188;28;20454;-74
2022/03/14 10:09:47;;;;;;;153.18;61.47;;;;;;;;;;5081692;28;20035;-74
2022/03/14 10:12:14;;;;;;;194.23;77.65;;;;;;;;;;5066848;28;20077;-74
2022/03/14 10:14:39;;;;;;;34.22;19.10;;;;;;;;;;5075952;28;20027;-72
2022/03/14 10:17:05;;;;;;;87.55;46.90;;;;;;;;;;5083490;28;20034;-72
2022/03/14 10:19:33;;;;;;;32.15;21.15;;;;;;;;;;5086921;28;20024;-74
2022/03/14 10:22:12;;;;;;;21.35;14.23;;;;;;;;;;5075066;28;20043;-73
2022/03/14 10:24:38;;;;;;;65.97;32.30;;;;;;;;;;5086976;28;20022;-72
2022/03/14 10:27:04;;;;;;;298.13;143.80;;;;;;;;;;5086069;28;20068;-74
2022/03/14 10:29:29;;;;;;;97.93;51.13;;;;;;;;;;5084289;28;20032;-74
2022/03/14 10:31:55;;;;;;;20.48;13.57;;;;;;;;;;5085894;28;20435;-74
2022/03/14 10:34:20;;;;;;;23.95;16.20;;;;;;;;;;5087403;28;20020;-74
2022/03/14 10:36:47;;;;;;;40.97;30.73;;;;;;;;;;5085947;28;20020;-73
2022/03/14 10:39:16;;;;;;;18.05;14.45;;;;;;;;;;5067734;28;20051;-73
2022/03/14 10:41:44;;;;;;;16.25;13.05;;;;;;;;;;5086383;28;20077;-75
2022/03/14 10:44:09;;;;;;;15.68;12.32;;;;;;;;;;5086423;28;20035;-72
2022/03/14 10:46:37;;;;;;;10.90;6.60;;;;;;;;;;5085647;28;20024;-73
2022/03/14 10:49:04;;;;;;;34.20;21.10;;;;;;;;;;5087560;28;20027;-72
2022/03/14 10:51:30;;;;;;;38.88;24.95;;;;;;;;;;5083552;28;20136;-74
2022/03/14 10:53:55;;;;;;;15.95;10.90;;;;;;;;;;5084209;28;20438;-73
2022/03/14 10:56:30;;;;;;;26.23;15.25;;;;;;;;;;5084932;28;20035;-73
2022/03/14 10:58:56;;;;;;;28.27;16.55;;;;;;;;;;5084782;28;20456;-71
2022/03/14 11:01:21;;;;;;;32.22;20.23;;;;;;;;;;5087423;28;20063;-74
2022/03/14 11:03:46;;;;;;;12.68;10.02;;;;;;;;;;5082891;28;20320;-75
2022/03/14 11:06:13;;;;;;;13.15;9.45;;;;;;;;;;5085379;28;20047;-75
2022/03/14 11:08:42;;;;;;;13.68;9.85;;;;;;;;;;5077267;28;20035;-73
2022/03/14 11:11:09;;;;;;;32.50;22.93;;;;;;;;;;5078682;28;20027;-76
2022/03/14 11:13:44;;;;;;;26.83;17.58;;;;;;;;;;5071584;28;20621;-75
2022/03/14 11:16:11;;;;;;;36.55;23.00;;;;;;;;;;5060618;28;20045;-76
2022/03/14 11:18:37;;;;;;;23.30;15.90;;;;;;;;;;5072874;28;20036;-77
2022/03/14 11:21:04;;;;;;;15.25;10.15;;;;;;;;;;5073201;28;20078;-77
2022/03/14 11:23:30;;;;;;;41.88;27.30;;;;;;;;;;5071504;28;20024;-76
2022/03/14 11:25:57;;;;;;;38.25;24.65;;;;;;;;;;5078150;28;20024;-75
2022/03/14 11:28:24;;;;;;;22.17;15.70;;;;;;;;;;5079893;28;20031;-76
2022/03/14 11:31:08;;;;;;;41.10;31.95;;;;;;;;;;5077470;28;20152;-76
2022/03/14 11:33:35;;;;;;;27.38;20.08;;;;;;;;;;5077960;28;20107;-77
2022/03/14 11:36:01;;;;;;;26.02;16.92;;;;;;;;;;5077998;28;20080;-72
2022/03/14 11:38:27;;;;;;;17.60;13.45;;;;;;;;;;5078088;28;20043;-75
2022/03/14 11:40:53;;;;;;;24.35;19.90;;;;;;;;;;5077822;28;20066;-76
2022/03/14 11:43:19;;;;;;;32.33;24.88;;;;;;;;;;5076612;28;20056;-75
2022/03/14 11:45:45;;;;;;;54.08;41.95;;;;;;;;;;5079155;28;20035;-76
2022/03/14 11:48:11;;;;;;;28.42;22.80;;;;;;;;;;5077324;28;20032;-75
2022/03/14 11:50:43;;;;;;;28.33;21.88;;;;;;;;;;5079099;28;20016;-77
2022/03/14 11:53:08;;;;;;;42.13;28.27;;;;;;;;;;5075623;28;20335;-78
2022/03/14 11:55:34;;;;;;;40.45;25.25;;;;;;;;;;5075137;28;20031;-77
2022/03/14 11:57:59;;;;;;;18.63;10.68;;;;;;;;;;5077434;28;20116;-76
2022/03/14 12:00:27;;;;;;;127.25;66.55;;;;;;;;;;5077336;28;20373;-75
2022/03/14 12:02:52;;;;;;;60.15;34.17;;;;;;;;;;5075729;28;20024;-75
2022/03/14 12:05:21;;;;;;;24.17;16.08;;;;;;;;;;5077697;28;20066;-76
2022/03/14 12:07:46;;;;;;;46.53;27.70;;;;;;;;;;5085247;28;20431;-76
2022/03/14 12:10:25;;;;;;;55.67;34.15;;;;;;;;;;5089276;28;20012;-75
2022/03/14 12:12:53;;;;;;;18.77;14.50;;;;;;;;;;5086455;28;20439;-75
2022/03/14 12:15:41;;;;;;;26.58;21.05;;;;;;;;;;5087268;28;20535;-75
2022/03/14 12:18:27;;;;;;;20.38;15.05;;;;;;;;;;5088417;28;20082;-76
2022/03/14 12:20:54;;;;;;;11.93;10.35;;;;;;;;;;5087240;28;20032;-76
2022/03/14 12:23:21;;;;;;;11.30;8.35;;;;;;;;;;5084525;28;20103;-76
2022/03/14 12:25:46;;;;;;;10.13;7.68;;;;;;;;;;5087048;28;20332;-75
2022/03/14 12:28:25;;;;;;;10.95;7.32;;;;;;;;;;5086125;28;20115;-76
2022/03/14 12:30:50;;;;;;;11.95;8.68;;;;;;;;;;5069184;28;20035;-75
2022/03/14 12:33:48;;;;;;;23.23;16.52;;;;;;;;;;5086698;28;20020;-75
2022/03/14 12:36:21;;;;;;;31.70;22.48;;;;;;;;;;5051753;28;20040;-75
2022/03/14 12:39:05;;;;;;;14.18;10.68;;;;;;;;;;5085419;28;20016;-76
2022/03/14 12:41:30;;;;;;;13.02;10.18;;;;;;;;;;5087364;28;20119;-76
2022/03/14 12:43:57;;;;;;;11.75;8.75;;;;;;;;;;5088373;28;20168;-76
2022/03/14 12:46:22;;;;;;;10.30;8.82;;;;;;;;;;5085987;28;20020;-75
2022/03/14 12:48:51;;;;;;;29.55;20.08;;;;;;;;;;5086306;28;20020;-76
2022/03/14 12:51:24;;;;;;;23.05;14.13;;;;;;;;;;5085372;28;20023;-76
2022/03/14 12:53:51;;;;;;;38.85;21.63;;;;;;;;;;5084953;28;21095;-76
2022/03/14 12:56:24;;;;;;;37.17;20.60;;;;;;;;;;5088734;28;20008;-76
2022/03/14 12:58:55;;;;;;;45.75;26.73;;;;;;;;;;5086571;28;20028;-76
2022/03/14 13:01:21;;;;;;;37.60;23.65;;;;;;;;;;5090454;28;20043;-76
2022/03/14 13:03:47;;;;;;;11.55;8.98;;;;;;;;;;5086901;28;20031;-76
2022/03/14 13:06:12;;;;;;;16.80;12.75;;;;;;;;;;5086163;28;20020;-76
2022/03/14 13:08:45;;;;;;;10.60;9.43;;;;;;;;;;5085965;28;20039;-76
2022/03/14 13:11:10;;;;;;;8.38;6.47;;;;;;;;;;5085468;28;20343;-76
2022/03/14 13:13:36;;;;;;;12.75;10.27;;;;;;;;;;5085069;28;20036;-76
2022/03/14 13:16:03;;;;;;;19.17;12.75;;;;;;;;;;5086686;28;20083;-76
2022/03/14 13:18:32;;;;;;;9.68;7.90;;;;;;;;;;5085054;28;20434;-76
2022/03/14 13:20:57;;;;;;;19.10;14.63;;;;;;;;;;5084950;28;20352;-76
2022/03/14 13:23:23;;;;;;;13.77;10.02;;;;;;;;;;5086113;28;20012;-75
2022/03/14 13:25:49;;;;;;;16.27;13.05;;;;;;;;;;5086331;28;20457;-76
2022/03/14 13:28:28;;;;;;;22.63;14.55;;;;;;;;;;5086692;28;20036;-76
2022/03/14 13:30:54;;;;;;;13.83;11.13;;;;;;;;;;5089840;28;20480;-75
2022/03/14 13:33:24;;;;;;;10.82;7.53;;;;;;;;;;5089950;28;20023;-76
2022/03/14 13:35:53;;;;;;;14.07;11.70;;;;;;;;;;5089751;28;20038;-77
2022/03/14 13:38:28;;;;;;;12.20;9.00;;;;;;;;;;5090331;28;20027;-77
2022/03/14 13:40:54;;;;;;;22.40;16.88;;;;;;;;;;5086838;28;20035;-74
2022/03/14 13:43:19;;;;;;;15.35;10.75;;;;;;;;;;5085272;28;20459;-75
2022/03/14 13:45:45;;;;;;;11.80;9.18;;;;;;;;;;5085576;28;20077;-75
2022/03/14 13:48:10;;;;;;;12.65;10.55;;;;;;;;;;5081625;28;20028;-78
2022/03/14 13:50:45;;;;;;;19.38;14.65;;;;;;;;;;5085009;28;20028;-74
2022/03/14 13:53:20;;;;;;;34.92;23.15;;;;;;;;;;5084118;28;20023;-75
2022/03/14 13:55:56;;;;;;;21.05;13.20;;;;;;;;;;5083558;28;20111;-75
2022/03/14 13:58:25;;;;;;;22.70;15.65;;;;;;;;;;5088808;28;20020;-75
2022/03/14 14:00:51;;;;;;;17.33;13.53;;;;;;;;;;5085457;28;20031;-74
2022/03/14 14:03:23;;;;;;;17.63;12.23;;;;;;;;;;5086405;28;20012;-73
2022/03/14 14:05:50;;;;;;;12.98;9.75;;;;;;;;;;5084129;28;20288;-74
2022/03/14 14:08:28;;;;;;;29.95;19.90;;;;;;;;;;5086516;28;20151;-74